APG603 RPLL-RPVB
Flight info
| Callsign | APG603 |
|---|---|
| Flight time | 0h 54m |
| Altitude | 33000 |
| Route | VERDE2R VERDE W24 TAPER B472 LAMBO LAMBO3P |
| Aircraft | A320/M-SDE3FGHIRWY/LB1 |
Departure
| Time | 2026-04-26 14:25 |
|---|---|
| Airport | Ninoy Aquino International Airport (RPLL) |
Arrival
| Time | 2026-04-26 15:20 |
|---|---|
| Airport | Bacolod-Silay International Airport (RPVB) |
| Time | Latitude | Longitude | Altitude | Speed | Heading |
|---|---|---|---|---|---|
| 2026-04-26 13:48 | 14.50855 | 121.01279 | 82 ft | 0 kts | 330° |
| 2026-04-26 14:11 | 14.50851 | 121.01282 | 82 ft | 2 kts | 330° |
| 2026-04-26 14:11 | 14.50837 | 121.01289 | 82 ft | 2 kts | 330° |
| 2026-04-26 14:12 | 14.50822 | 121.01299 | 81 ft | 2 kts | 330° |
| 2026-04-26 14:12 | 14.50812 | 121.01305 | 81 ft | 0 kts | 329° |
| 2026-04-26 14:12 | 14.50800 | 121.01313 | 81 ft | 2 kts | 313° |
| 2026-04-26 14:12 | 14.50789 | 121.01327 | 82 ft | 2 kts | 297° |
| 2026-04-26 14:13 | 14.50782 | 121.01360 | 82 ft | 2 kts | 265° |
| 2026-04-26 14:13 | 14.50785 | 121.01376 | 82 ft | 2 kts | 249° |
| 2026-04-26 14:13 | 14.50789 | 121.01384 | 82 ft | 1 kts | 239° |
| 2026-04-26 14:14 | 14.50792 | 121.01388 | 82 ft | 0 kts | 239° |
| 2026-04-26 14:14 | 14.50791 | 121.01388 | 82 ft | 0 kts | 239° |
| 2026-04-26 14:16 | 14.50788 | 121.01382 | 82 ft | 2 kts | 239° |
| 2026-04-26 14:16 | 14.50776 | 121.01360 | 82 ft | 4 kts | 240° |
| 2026-04-26 14:16 | 14.50754 | 121.01324 | 82 ft | 6 kts | 226° |
| 2026-04-26 14:16 | 14.50701 | 121.01320 | 82 ft | 9 kts | 162° |
| 2026-04-26 14:17 | 14.50649 | 121.01283 | 82 ft | 11 kts | 240° |
| 2026-04-26 14:17 | 14.50608 | 121.01209 | 82 ft | 12 kts | 239° |
| 2026-04-26 14:17 | 14.50563 | 121.01128 | 82 ft | 13 kts | 240° |
| 2026-04-26 14:17 | 14.50515 | 121.01042 | 82 ft | 14 kts | 241° |
| 2026-04-26 14:18 | 14.50466 | 121.00951 | 82 ft | 14 kts | 240° |
| 2026-04-26 14:18 | 14.50413 | 121.00857 | 82 ft | 15 kts | 241° |
| 2026-04-26 14:18 | 14.50359 | 121.00761 | 82 ft | 15 kts | 239° |
| 2026-04-26 14:18 | 14.50302 | 121.00658 | 82 ft | 16 kts | 239° |
| 2026-04-26 14:19 | 14.50244 | 121.00552 | 82 ft | 17 kts | 240° |
| 2026-04-26 14:19 | 14.50183 | 121.00444 | 82 ft | 17 kts | 241° |
| 2026-04-26 14:19 | 14.50121 | 121.00333 | 82 ft | 17 kts | 240° |
| 2026-04-26 14:19 | 14.50060 | 121.00221 | 82 ft | 18 kts | 240° |
| 2026-04-26 14:20 | 14.49997 | 121.00109 | 82 ft | 18 kts | 240° |
| 2026-04-26 14:20 | 14.49947 | 121.00019 | 82 ft | 1 kts | 240° |
| 2026-04-26 14:20 | 14.49945 | 121.00017 | 82 ft | 0 kts | 240° |
| 2026-04-26 14:23 | 14.49942 | 121.00010 | 82 ft | 2 kts | 240° |
| 2026-04-26 14:24 | 14.49921 | 120.99982 | 82 ft | 7 kts | 223° |
| 2026-04-26 14:24 | 14.49880 | 120.99968 | 82 ft | 11 kts | 176° |
| 2026-04-26 14:24 | 14.49819 | 121.00081 | 82 ft | 23 kts | 61° |
| 2026-04-26 14:24 | 14.50027 | 121.00452 | 82 ft | 93 kts | 60° |
| 2026-04-26 14:25 | 14.50457 | 121.01224 | 82 ft | 151 kts | 60° |
| 2026-04-26 14:25 | 14.51042 | 121.02264 | 348 ft | 175 kts | 60° |
| 2026-04-26 14:25 | 14.51656 | 121.03327 | 1036 ft | 172 kts | 60° |
| 2026-04-26 14:25 | 14.52244 | 121.04359 | 1760 ft | 167 kts | 59° |
| 2026-04-26 14:26 | 14.52825 | 121.05406 | 2218 ft | 176 kts | 60° |
| 2026-04-26 14:26 | 14.53462 | 121.06561 | 2578 ft | 193 kts | 60° |
| 2026-04-26 14:26 | 14.54942 | 121.09212 | 3263 ft | 233 kts | 60° |
| 2026-04-26 14:27 | 14.55780 | 121.10708 | 3697 ft | 251 kts | 60° |
| 2026-04-26 14:27 | 14.56380 | 121.11776 | 4069 ft | 259 kts | 60° |
| 2026-04-26 14:27 | 14.57589 | 121.13924 | 5072 ft | 264 kts | 60° |
| 2026-04-26 14:27 | 14.58269 | 121.15663 | 5785 ft | 268 kts | 84° |
| 2026-04-26 14:28 | 14.57949 | 121.17550 | 6508 ft | 272 kts | 116° |
| 2026-04-26 14:28 | 14.56742 | 121.19053 | 7238 ft | 278 kts | 142° |
| 2026-04-26 14:28 | 14.54826 | 121.19918 | 7998 ft | 286 kts | 169° |
| 2026-04-26 14:28 | 14.52804 | 121.19843 | 8649 ft | 291 kts | 187° |
| 2026-04-26 14:29 | 14.50778 | 121.19477 | 9316 ft | 295 kts | 188° |
| 2026-04-26 14:29 | 14.48746 | 121.19113 | 10008 ft | 298 kts | 188° |
| 2026-04-26 14:29 | 14.46678 | 121.18755 | 10547 ft | 306 kts | 188° |
| 2026-04-26 14:29 | 14.44499 | 121.18388 | 10846 ft | 323 kts | 188° |
| 2026-04-26 14:30 | 14.42247 | 121.18017 | 11096 ft | 338 kts | 188° |
| 2026-04-26 14:30 | 14.39833 | 121.17622 | 11351 ft | 354 kts | 188° |
| 2026-04-26 14:30 | 14.37366 | 121.17222 | 11620 ft | 368 kts | 188° |
| 2026-04-26 14:30 | 14.34785 | 121.16803 | 12001 ft | 376 kts | 188° |
| 2026-04-26 14:31 | 14.32162 | 121.16378 | 12522 ft | 379 kts | 188° |
| 2026-04-26 14:31 | 14.29553 | 121.15955 | 13060 ft | 381 kts | 188° |
| 2026-04-26 14:31 | 14.26911 | 121.15528 | 13596 ft | 383 kts | 188° |
| 2026-04-26 14:31 | 14.24270 | 121.15102 | 14086 ft | 386 kts | 188° |
| 2026-04-26 14:32 | 14.21562 | 121.14665 | 14563 ft | 388 kts | 188° |
| 2026-04-26 14:32 | 14.18738 | 121.14210 | 15041 ft | 391 kts | 189° |
| 2026-04-26 14:32 | 14.16051 | 121.13777 | 15471 ft | 394 kts | 189° |
| 2026-04-26 14:32 | 14.13301 | 121.13334 | 15889 ft | 396 kts | 189° |
| 2026-04-26 14:33 | 14.10531 | 121.12886 | 16301 ft | 399 kts | 189° |
| 2026-04-26 14:33 | 14.07757 | 121.12438 | 16694 ft | 401 kts | 189° |
| 2026-04-26 14:33 | 14.05008 | 121.11995 | 17072 ft | 403 kts | 189° |
| 2026-04-26 14:33 | 14.02200 | 121.11543 | 17444 ft | 405 kts | 190° |
| 2026-04-26 14:34 | 13.99305 | 121.11076 | 17815 ft | 407 kts | 190° |
| 2026-04-26 14:34 | 13.96209 | 121.10576 | 18195 ft | 410 kts | 190° |
| 2026-04-26 14:34 | 13.93015 | 121.10060 | 18569 ft | 413 kts | 190° |
| 2026-04-26 14:34 | 13.89903 | 121.09559 | 18915 ft | 415 kts | 190° |
| 2026-04-26 14:35 | 13.86961 | 121.09085 | 19222 ft | 418 kts | 190° |
| 2026-04-26 14:35 | 13.84066 | 121.08618 | 19512 ft | 420 kts | 190° |
| 2026-04-26 14:35 | 13.81149 | 121.08149 | 19799 ft | 422 kts | 190° |
| 2026-04-26 14:35 | 13.78234 | 121.07679 | 20078 ft | 425 kts | 190° |
| 2026-04-26 14:36 | 13.75314 | 121.07209 | 20357 ft | 427 kts | 190° |
| 2026-04-26 14:36 | 13.72352 | 121.06733 | 20636 ft | 429 kts | 190° |
| 2026-04-26 14:36 | 13.69376 | 121.06255 | 20909 ft | 431 kts | 190° |
| 2026-04-26 14:36 | 13.66409 | 121.05777 | 21178 ft | 432 kts | 190° |
| 2026-04-26 14:37 | 13.63401 | 121.05293 | 21446 ft | 434 kts | 190° |
| 2026-04-26 14:37 | 13.60394 | 121.04810 | 21694 ft | 436 kts | 190° |
| 2026-04-26 14:37 | 13.57398 | 121.04327 | 21927 ft | 438 kts | 191° |
| 2026-04-26 14:37 | 13.54345 | 121.03852 | 22154 ft | 441 kts | 188° |
| 2026-04-26 14:38 | 13.51285 | 121.03876 | 22342 ft | 446 kts | 172° |
| 2026-04-26 14:38 | 13.48271 | 121.04777 | 22589 ft | 450 kts | 156° |
| 2026-04-26 14:38 | 13.45562 | 121.06402 | 22877 ft | 451 kts | 146° |
| 2026-04-26 14:38 | 13.43852 | 121.07621 | 23136 ft | 450 kts | 145° |
| 2026-04-26 14:39 | 13.40493 | 121.10075 | 24055 ft | 437 kts | 146° |
| 2026-04-26 14:39 | 13.38026 | 121.11850 | 24816 ft | 426 kts | 146° |
| 2026-04-26 14:39 | 13.35636 | 121.13545 | 25580 ft | 415 kts | 147° |
| 2026-04-26 14:39 | 13.33285 | 121.15198 | 26354 ft | 403 kts | 147° |
| 2026-04-26 14:40 | 13.31016 | 121.16790 | 27124 ft | 392 kts | 147° |
| 2026-04-26 14:40 | 13.28811 | 121.18336 | 27888 ft | 380 kts | 148° |
| 2026-04-26 14:40 | 13.26649 | 121.19852 | 28651 ft | 368 kts | 148° |
| 2026-04-26 14:40 | 13.24552 | 121.21320 | 29228 ft | 363 kts | 148° |
| 2026-04-26 14:41 | 13.22449 | 121.22791 | 29349 ft | 370 kts | 148° |
| 2026-04-26 14:41 | 13.20304 | 121.24293 | 29714 ft | 369 kts | 148° |
| 2026-04-26 14:41 | 13.18190 | 121.25773 | 30227 ft | 365 kts | 148° |
| 2026-04-26 14:41 | 13.16099 | 121.27238 | 30575 ft | 365 kts | 148° |
| 2026-04-26 14:42 | 13.14024 | 121.28692 | 30839 ft | 367 kts | 148° |
| 2026-04-26 14:42 | 13.11895 | 121.30181 | 31106 ft | 369 kts | 148° |
| 2026-04-26 14:42 | 13.09747 | 121.31684 | 31378 ft | 371 kts | 148° |
| 2026-04-26 14:42 | 13.07615 | 121.33178 | 31644 ft | 373 kts | 148° |
| 2026-04-26 14:43 | 13.05489 | 121.34666 | 31912 ft | 374 kts | 148° |
| 2026-04-26 14:43 | 13.03310 | 121.36192 | 32186 ft | 376 kts | 148° |
| 2026-04-26 14:43 | 13.01140 | 121.37711 | 32456 ft | 377 kts | 148° |
| 2026-04-26 14:43 | 12.98966 | 121.39233 | 32717 ft | 379 kts | 148° |
| 2026-04-26 14:44 | 12.96771 | 121.40768 | 32945 ft | 382 kts | 148° |
| 2026-04-26 14:44 | 12.92262 | 121.43917 | 32951 ft | 400 kts | 148° |
| 2026-04-26 14:45 | 12.87403 | 121.47311 | 32944 ft | 417 kts | 148° |
| 2026-04-26 14:45 | 12.82213 | 121.50936 | 32930 ft | 433 kts | 148° |
| 2026-04-26 14:46 | 12.76938 | 121.54620 | 32921 ft | 447 kts | 148° |
| 2026-04-26 14:46 | 12.71449 | 121.58451 | 32915 ft | 459 kts | 148° |
| 2026-04-26 14:47 | 12.65926 | 121.62305 | 32909 ft | 467 kts | 147° |
| 2026-04-26 14:47 | 12.60431 | 121.66139 | 32910 ft | 468 kts | 148° |
| 2026-04-26 14:48 | 12.54809 | 121.70060 | 32907 ft | 468 kts | 148° |
| 2026-04-26 14:48 | 12.49362 | 121.73854 | 32903 ft | 467 kts | 148° |
| 2026-04-26 14:49 | 12.43850 | 121.77691 | 32900 ft | 467 kts | 148° |
| 2026-04-26 14:49 | 12.38408 | 121.81336 | 32895 ft | 465 kts | 151° |
| 2026-04-26 14:50 | 12.32601 | 121.84465 | 32891 ft | 463 kts | 157° |
| 2026-04-26 14:50 | 12.26662 | 121.87090 | 32891 ft | 462 kts | 159° |
| 2026-04-26 14:51 | 12.20720 | 121.89681 | 32889 ft | 462 kts | 159° |
| 2026-04-26 14:51 | 12.14755 | 121.92280 | 32889 ft | 463 kts | 159° |
| 2026-04-26 14:52 | 12.08733 | 121.94905 | 32888 ft | 463 kts | 159° |
| 2026-04-26 14:52 | 12.02750 | 121.97511 | 32531 ft | 461 kts | 158° |
| 2026-04-26 14:52 | 11.99797 | 121.98798 | 32018 ft | 459 kts | 158° |
| 2026-04-26 14:53 | 11.96852 | 122.00082 | 31324 ft | 457 kts | 158° |
| 2026-04-26 14:53 | 11.93964 | 122.01341 | 30515 ft | 457 kts | 158° |
| 2026-04-26 14:53 | 11.91005 | 122.02630 | 29608 ft | 459 kts | 158° |
| 2026-04-26 14:53 | 11.87967 | 122.03953 | 28644 ft | 462 kts | 159° |
| 2026-04-26 14:54 | 11.84916 | 122.05284 | 28476 ft | 443 kts | 159° |
| 2026-04-26 14:54 | 11.82066 | 122.06529 | 28147 ft | 434 kts | 159° |
| 2026-04-26 14:54 | 11.79119 | 122.07809 | 26960 ft | 445 kts | 159° |
| 2026-04-26 14:54 | 11.76139 | 122.09096 | 25507 ft | 460 kts | 158° |
| 2026-04-26 14:55 | 11.73133 | 122.10397 | 24094 ft | 472 kts | 158° |
| 2026-04-26 14:55 | 11.70081 | 122.11723 | 23500 ft | 463 kts | 157° |
| 2026-04-26 14:55 | 11.67123 | 122.13010 | 23257 ft | 447 kts | 157° |
| 2026-04-26 14:55 | 11.64278 | 122.14250 | 23002 ft | 443 kts | 157° |
| 2026-04-26 14:56 | 11.61445 | 122.15482 | 22678 ft | 442 kts | 157° |
| 2026-04-26 14:56 | 11.58603 | 122.16716 | 22266 ft | 440 kts | 157° |
| 2026-04-26 14:56 | 11.55801 | 122.17932 | 21794 ft | 436 kts | 157° |
| 2026-04-26 14:56 | 11.53032 | 122.19134 | 21286 ft | 432 kts | 156° |
| 2026-04-26 14:57 | 11.50260 | 122.20338 | 20760 ft | 428 kts | 156° |
| 2026-04-26 14:57 | 11.47549 | 122.21515 | 20249 ft | 424 kts | 156° |
| 2026-04-26 14:57 | 11.44824 | 122.22697 | 19727 ft | 419 kts | 156° |
| 2026-04-26 14:57 | 11.42164 | 122.23851 | 19225 ft | 415 kts | 156° |
| 2026-04-26 14:58 | 11.39514 | 122.25002 | 18716 ft | 411 kts | 156° |
| 2026-04-26 14:58 | 11.36877 | 122.26144 | 18209 ft | 408 kts | 156° |
| 2026-04-26 14:58 | 11.34282 | 122.27271 | 17700 ft | 404 kts | 156° |
| 2026-04-26 14:58 | 11.31705 | 122.28388 | 17297 ft | 397 kts | 156° |
| 2026-04-26 14:59 | 11.29184 | 122.29481 | 17021 ft | 386 kts | 156° |
| 2026-04-26 14:59 | 11.26751 | 122.30534 | 16849 ft | 373 kts | 155° |
| 2026-04-26 14:59 | 11.24388 | 122.31557 | 16674 ft | 361 kts | 155° |
| 2026-04-26 14:59 | 11.22875 | 122.32213 | 16559 ft | 354 kts | 155° |
| 2026-04-26 15:00 | 11.19919 | 122.33495 | 16286 ft | 341 kts | 155° |
| 2026-04-26 15:00 | 11.17745 | 122.34438 | 16124 ft | 331 kts | 154° |
| 2026-04-26 15:00 | 11.15703 | 122.35439 | 15999 ft | 319 kts | 150° |
| 2026-04-26 15:00 | 11.13782 | 122.36556 | 15627 ft | 318 kts | 147° |
| 2026-04-26 15:01 | 11.11878 | 122.37721 | 15245 ft | 318 kts | 147° |
| 2026-04-26 15:01 | 11.09978 | 122.38892 | 14871 ft | 317 kts | 147° |
| 2026-04-26 15:01 | 11.08110 | 122.40040 | 14508 ft | 316 kts | 147° |
| 2026-04-26 15:01 | 11.06212 | 122.41203 | 14147 ft | 314 kts | 147° |
| 2026-04-26 15:02 | 11.04369 | 122.42333 | 13790 ft | 312 kts | 147° |
| 2026-04-26 15:02 | 11.02508 | 122.43472 | 13424 ft | 311 kts | 147° |
| 2026-04-26 15:02 | 11.00649 | 122.44609 | 13055 ft | 309 kts | 147° |
| 2026-04-26 15:02 | 10.98787 | 122.45747 | 12681 ft | 307 kts | 147° |
| 2026-04-26 15:03 | 10.96962 | 122.46860 | 12322 ft | 305 kts | 147° |
| 2026-04-26 15:03 | 10.95133 | 122.47977 | 11992 ft | 302 kts | 147° |
| 2026-04-26 15:03 | 10.93362 | 122.49058 | 11655 ft | 299 kts | 147° |
| 2026-04-26 15:03 | 10.91561 | 122.50157 | 11310 ft | 297 kts | 147° |
| 2026-04-26 15:04 | 10.89803 | 122.51230 | 10971 ft | 294 kts | 147° |
| 2026-04-26 15:04 | 10.88109 | 122.52416 | 10618 ft | 291 kts | 137° |
| 2026-04-26 15:04 | 10.86674 | 122.53908 | 10261 ft | 287 kts | 127° |
| 2026-04-26 15:04 | 10.85417 | 122.55550 | 9910 ft | 285 kts | 125° |
| 2026-04-26 15:05 | 10.84229 | 122.57155 | 9571 ft | 283 kts | 124° |
| 2026-04-26 15:05 | 10.83404 | 122.58272 | 9329 ft | 282 kts | 124° |
| 2026-04-26 15:05 | 10.81827 | 122.60399 | 8872 ft | 279 kts | 124° |
| 2026-04-26 15:05 | 10.80669 | 122.61955 | 8536 ft | 278 kts | 124° |
| 2026-04-26 15:06 | 10.79494 | 122.63530 | 8187 ft | 276 kts | 124° |
| 2026-04-26 15:06 | 10.78336 | 122.65080 | 7850 ft | 274 kts | 124° |
| 2026-04-26 15:06 | 10.77147 | 122.66668 | 7517 ft | 272 kts | 124° |
| 2026-04-26 15:06 | 10.76000 | 122.68201 | 7190 ft | 271 kts | 124° |
| 2026-04-26 15:07 | 10.73704 | 122.71268 | 6531 ft | 268 kts | 124° |
| 2026-04-26 15:07 | 10.72555 | 122.72804 | 6198 ft | 266 kts | 124° |
| 2026-04-26 15:07 | 10.71419 | 122.74318 | 5869 ft | 265 kts | 124° |
| 2026-04-26 15:08 | 10.70297 | 122.75815 | 5548 ft | 263 kts | 124° |
| 2026-04-26 15:08 | 10.69197 | 122.77284 | 5235 ft | 261 kts | 124° |
| 2026-04-26 15:08 | 10.68084 | 122.78767 | 5106 ft | 251 kts | 123° |
| 2026-04-26 15:08 | 10.67039 | 122.80157 | 5100 ft | 246 kts | 123° |
| 2026-04-26 15:09 | 10.65983 | 122.81570 | 5076 ft | 246 kts | 125° |
| 2026-04-26 15:09 | 10.64678 | 122.82743 | 5019 ft | 253 kts | 153° |
| 2026-04-26 15:09 | 10.62876 | 122.82950 | 4922 ft | 263 kts | 191° |
| 2026-04-26 15:09 | 10.61281 | 122.82039 | 4814 ft | 266 kts | 229° |
| 2026-04-26 15:10 | 10.60476 | 122.80362 | 4773 ft | 267 kts | 260° |
| 2026-04-26 15:10 | 10.60429 | 122.79095 | 4743 ft | 264 kts | 284° |
| 2026-04-26 15:10 | 10.61545 | 122.76938 | 4744 ft | 259 kts | 309° |
| 2026-04-26 15:10 | 10.62607 | 122.75446 | 4739 ft | 259 kts | 308° |
| 2026-04-26 15:11 | 10.63615 | 122.73914 | 4737 ft | 260 kts | 306° |
| 2026-04-26 15:11 | 10.64573 | 122.72356 | 4734 ft | 260 kts | 308° |
| 2026-04-26 15:11 | 10.65867 | 122.71130 | 4718 ft | 251 kts | 341° |
| 2026-04-26 15:11 | 10.67541 | 122.70936 | 4727 ft | 240 kts | 18° |
| 2026-04-26 15:12 | 10.68951 | 122.71789 | 4740 ft | 235 kts | 50° |
| 2026-04-26 15:12 | 10.69734 | 122.73225 | 4739 ft | 235 kts | 76° |
| 2026-04-26 15:12 | 10.69743 | 122.74920 | 4729 ft | 239 kts | 104° |
| 2026-04-26 15:12 | 10.68994 | 122.76448 | 4729 ft | 243 kts | 118° |
| 2026-04-26 15:13 | 10.68123 | 122.77904 | 4693 ft | 242 kts | 117° |
| 2026-04-26 15:13 | 10.67260 | 122.79390 | 4665 ft | 241 kts | 117° |
| 2026-04-26 15:13 | 10.66420 | 122.80836 | 4625 ft | 228 kts | 117° |
| 2026-04-26 15:13 | 10.65614 | 122.82231 | 4511 ft | 223 kts | 116° |
| 2026-04-26 15:14 | 10.64822 | 122.83627 | 4266 ft | 221 kts | 116° |
| 2026-04-26 15:14 | 10.64045 | 122.84996 | 4010 ft | 220 kts | 116° |
| 2026-04-26 15:14 | 10.63274 | 122.86352 | 3748 ft | 219 kts | 116° |
| 2026-04-26 15:14 | 10.62510 | 122.87693 | 3488 ft | 217 kts | 116° |
| 2026-04-26 15:15 | 10.61763 | 122.89005 | 3279 ft | 213 kts | 116° |
| 2026-04-26 15:15 | 10.61069 | 122.90288 | 3241 ft | 198 kts | 107° |
| 2026-04-26 15:15 | 10.61017 | 122.91625 | 3174 ft | 190 kts | 69° |
| 2026-04-26 15:15 | 10.61786 | 122.92711 | 3106 ft | 192 kts | 37° |
| 2026-04-26 15:16 | 10.62959 | 122.93399 | 3003 ft | 193 kts | 32° |
| 2026-04-26 15:16 | 10.64208 | 122.94098 | 2865 ft | 193 kts | 32° |
| 2026-04-26 15:16 | 10.65445 | 122.94802 | 2773 ft | 182 kts | 32° |
| 2026-04-26 15:16 | 10.66714 | 122.95535 | 2379 ft | 183 kts | 32° |
| 2026-04-26 15:17 | 10.67916 | 122.96233 | 2056 ft | 173 kts | 32° |
| 2026-04-26 15:17 | 10.68633 | 122.96648 | 1915 ft | 161 kts | 33° |
| 2026-04-26 15:17 | 10.69909 | 122.97388 | 1587 ft | 142 kts | 33° |
| 2026-04-26 15:17 | 10.70804 | 122.97911 | 1385 ft | 134 kts | 33° |
| 2026-04-26 15:18 | 10.71655 | 122.98411 | 1211 ft | 133 kts | 33° |
| 2026-04-26 15:18 | 10.72485 | 122.98897 | 1041 ft | 133 kts | 33° |
| 2026-04-26 15:18 | 10.73350 | 122.99403 | 855 ft | 133 kts | 32° |
| 2026-04-26 15:18 | 10.74261 | 122.99934 | 656 ft | 132 kts | 32° |
| 2026-04-26 15:19 | 10.75134 | 123.00442 | 457 ft | 132 kts | 32° |
| 2026-04-26 15:19 | 10.75993 | 123.00935 | 270 ft | 131 kts | 32° |
| 2026-04-26 15:19 | 10.76860 | 123.01442 | 82 ft | 130 kts | 32° |
| 2026-04-26 15:19 | 10.77690 | 123.01931 | 36 ft | 108 kts | 28° |
| 2026-04-26 15:20 | 10.78214 | 123.02233 | 37 ft | 52 kts | 25° |
| 2026-04-26 15:20 | 10.78394 | 123.02315 | 37 ft | 10 kts | 4° |
| 2026-04-26 15:20 | 10.78404 | 123.02342 | 37 ft | 5 kts | 174° |
| 2026-04-26 15:20 | 10.78353 | 123.02316 | 37 ft | 8 kts | 211° |
| 2026-04-26 15:21 | 10.78293 | 123.02280 | 37 ft | 9 kts | 210° |
| 2026-04-26 15:21 | 10.78222 | 123.02238 | 37 ft | 11 kts | 210° |
| 2026-04-26 15:21 | 10.78140 | 123.02192 | 37 ft | 13 kts | 209° |
| 2026-04-26 15:21 | 10.78041 | 123.02134 | 36 ft | 16 kts | 211° |
| 2026-04-26 15:22 | 10.77926 | 123.02067 | 36 ft | 18 kts | 211° |
| 2026-04-26 15:22 | 10.77814 | 123.02001 | 36 ft | 17 kts | 209° |
| 2026-04-26 15:22 | 10.77702 | 123.01936 | 36 ft | 16 kts | 212° |
| 2026-04-26 15:22 | 10.77684 | 123.01866 | 36 ft | 10 kts | 303° |
| 2026-04-26 15:23 | 10.77721 | 123.01801 | 36 ft | 9 kts | 298° |
| 2026-04-26 15:23 | 10.77749 | 123.01741 | 35 ft | 9 kts | 277° |
| 2026-04-26 15:23 | 10.77723 | 123.01690 | 35 ft | 5 kts | 214° |
| 2026-04-26 15:23 | 10.77710 | 123.01682 | 35 ft | 0 kts | 211° |
| 2026-04-26 15:24 | 10.77710 | 123.01681 | 35 ft | 0 kts | 211° |
| 2026-04-26 15:24 | 10.77691 | 123.01670 | 35 ft | 5 kts | 211° |
| 2026-04-26 15:24 | 10.77651 | 123.01646 | 35 ft | 5 kts | 222° |
| 2026-04-26 15:25 | 10.77658 | 123.01605 | 35 ft | 5 kts | 302° |
| 2026-04-26 15:25 | 10.77668 | 123.01588 | 35 ft | 2 kts | 301° |
| 2026-04-26 15:25 | 10.77673 | 123.01578 | 35 ft | 0 kts | 301° |